Terminal Aerodrome Forecast
Issued by NWS Wakefield, VA

Home | Current Version | Previous Version | Text Only | Print | Product List | Glossary On
Versions: 1 2 3 4 5 6 7 8 9 10 11 12 13 14 15 16 17 18 19 20 21 22 23 24 25 26
000
FTUS41 KAKQ 040300 AAA
TAFECG
TAF AMD
KECG 040316Z 0403/0424 22004KT 6SM BR OVC015
      TEMPO 0403/0405 4SM -RA BR BKN007
     FM040500 22009KT 3SM -DZ BR OVC008
     FM041500 24015G22KT P6SM OVC020=

USA.gov is the U.S. government's official web portal to all federal, state and local government web resources and services.